sensor_id;sensor_type;location;lat;lon;timestamp;P1;durP1;ratioP1;P2;durP2;ratioP2
9422;SDS011;65863;49.506;10.400;2023-04-09T00:02:41;16.77;;;12.83;;
9422;SDS011;65863;49.506;10.400;2023-04-09T00:05:25;18.67;;;13.60;;
9422;SDS011;65863;49.506;10.400;2023-04-09T00:08:08;16.63;;;13.40;;
9422;SDS011;65863;49.506;10.400;2023-04-09T00:10:52;15.73;;;12.63;;
9422;SDS011;65863;49.506;10.400;2023-04-09T00:13:37;16.73;;;12.83;;
9422;SDS011;65863;49.506;10.400;2023-04-09T00:16:21;16.70;;;12.50;;
9422;SDS011;65863;49.506;10.400;2023-04-09T00:19:05;16.20;;;13.03;;
9422;SDS011;65863;49.506;10.400;2023-04-09T00:21:49;17.83;;;12.93;;
9422;SDS011;65863;49.506;10.400;2023-04-09T00:24:34;16.97;;;13.57;;
9422;SDS011;65863;49.506;10.400;2023-04-09T00:27:18;18.97;;;13.53;;
9422;SDS011;65863;49.506;10.400;2023-04-09T00:30:02;18.00;;;12.53;;
9422;SDS011;65863;49.506;10.400;2023-04-09T00:32:46;16.33;;;12.67;;
9422;SDS011;65863;49.506;10.400;2023-04-09T00:35:31;16.13;;;12.73;;
9422;SDS011;65863;49.506;10.400;2023-04-09T00:38:15;17.33;;;13.10;;
9422;SDS011;65863;49.506;10.400;2023-04-09T00:40:59;18.27;;;12.97;;
9422;SDS011;65863;49.506;10.400;2023-04-09T00:43:44;15.37;;;12.27;;
9422;SDS011;65863;49.506;10.400;2023-04-09T00:46:28;17.20;;;13.77;;
9422;SDS011;65863;49.506;10.400;2023-04-09T00:49:13;16.67;;;13.27;;
9422;SDS011;65863;49.506;10.400;2023-04-09T00:51:57;16.80;;;13.33;;
9422;SDS011;65863;49.506;10.400;2023-04-09T00:54:41;19.40;;;13.80;;
9422;SDS011;65863;49.506;10.400;2023-04-09T00:57:25;16.00;;;13.03;;
9422;SDS011;65863;49.506;10.400;2023-04-09T01:00:11;18.40;;;12.97;;
9422;SDS011;65863;49.506;10.400;2023-04-09T01:02:56;15.87;;;12.77;;
9422;SDS011;65863;49.506;10.400;2023-04-09T01:05:49;16.80;;;13.53;;
9422;SDS011;65863;49.506;10.400;2023-04-09T01:21:16;21.83;;;14.27;;
9422;SDS011;65863;49.506;10.400;2023-04-09T01:24:31;18.07;;;13.43;;
9422;SDS011;65863;49.506;10.400;2023-04-09T01:27:28;18.13;;;13.83;;
9422;SDS011;65863;49.506;10.400;2023-04-09T01:30:20;20.07;;;14.43;;
9422;SDS011;65863;49.506;10.400;2023-04-09T01:33:04;17.50;;;13.63;;
9422;SDS011;65863;49.506;10.400;2023-04-09T01:35:49;17.97;;;13.87;;
9422;SDS011;65863;49.506;10.400;2023-04-09T01:38:34;15.70;;;13.07;;
9422;SDS011;65863;49.506;10.400;2023-04-09T01:41:20;18.87;;;14.13;;
9422;SDS011;65863;49.506;10.400;2023-04-09T01:44:05;16.00;;;13.23;;
9422;SDS011;65863;49.506;10.400;2023-04-09T01:46:52;18.37;;;13.77;;
9422;SDS011;65863;49.506;10.400;2023-04-09T01:49:38;19.00;;;13.60;;
9422;SDS011;65863;49.506;10.400;2023-04-09T01:52:23;21.20;;;15.57;;
9422;SDS011;65863;49.506;10.400;2023-04-09T01:55:08;18.10;;;14.13;;
9422;SDS011;65863;49.506;10.400;2023-04-09T01:57:52;18.77;;;14.03;;
9422;SDS011;65863;49.506;10.400;2023-04-09T02:00:40;19.47;;;14.10;;
9422;SDS011;65863;49.506;10.400;2023-04-09T02:03:33;18.50;;;13.43;;
9422;SDS011;65863;49.506;10.400;2023-04-09T02:09:21;18.40;;;14.57;;
9422;SDS011;65863;49.506;10.400;2023-04-09T02:12:09;18.00;;;14.37;;
9422;SDS011;65863;49.506;10.400;2023-04-09T02:14:56;20.50;;;14.67;;
9422;SDS011;65863;49.506;10.400;2023-04-09T02:17:41;17.70;;;14.30;;
9422;SDS011;65863;49.506;10.400;2023-04-09T02:20:26;16.67;;;13.30;;
9422;SDS011;65863;49.506;10.400;2023-04-09T02:23:10;19.97;;;14.23;;
9422;SDS011;65863;49.506;10.400;2023-04-09T02:25:54;17.50;;;13.40;;
9422;SDS011;65863;49.506;10.400;2023-04-09T02:28:39;18.70;;;15.00;;
9422;SDS011;65863;49.506;10.400;2023-04-09T02:31:22;18.30;;;13.83;;
9422;SDS011;65863;49.506;10.400;2023-04-09T02:34:06;18.97;;;14.00;;
9422;SDS011;65863;49.506;10.400;2023-04-09T02:36:50;18.10;;;13.73;;
9422;SDS011;65863;49.506;10.400;2023-04-09T02:39:34;20.63;;;14.67;;
9422;SDS011;65863;49.506;10.400;2023-04-09T02:42:18;18.60;;;14.80;;
9422;SDS011;65863;49.506;10.400;2023-04-09T02:45:03;19.77;;;14.47;;
9422;SDS011;65863;49.506;10.400;2023-04-09T02:47:50;20.07;;;14.57;;
9422;SDS011;65863;49.506;10.400;2023-04-09T02:50:34;18.70;;;13.83;;
9422;SDS011;65863;49.506;10.400;2023-04-09T02:53:18;20.13;;;14.77;;
9422;SDS011;65863;49.506;10.400;2023-04-09T02:56:04;18.27;;;14.17;;
9422;SDS011;65863;49.506;10.400;2023-04-09T02:58:48;20.40;;;14.57;;
9422;SDS011;65863;49.506;10.400;2023-04-09T03:01:36;19.00;;;14.47;;
9422;SDS011;65863;49.506;10.400;2023-04-09T03:04:20;20.17;;;14.53;;
9422;SDS011;65863;49.506;10.400;2023-04-09T03:07:04;19.03;;;14.33;;
9422;SDS011;65863;49.506;10.400;2023-04-09T03:09:48;18.43;;;14.17;;
9422;SDS011;65863;49.506;10.400;2023-04-09T03:12:34;17.50;;;13.73;;
9422;SDS011;65863;49.506;10.400;2023-04-09T03:15:18;18.13;;;13.47;;
9422;SDS011;65863;49.506;10.400;2023-04-09T03:18:02;18.70;;;14.13;;
9422;SDS011;65863;49.506;10.400;2023-04-09T03:20:46;18.67;;;14.10;;
9422;SDS011;65863;49.506;10.400;2023-04-09T03:23:31;17.50;;;13.57;;
9422;SDS011;65863;49.506;10.400;2023-04-09T03:26:18;17.67;;;14.20;;
9422;SDS011;65863;49.506;10.400;2023-04-09T03:29:05;19.40;;;14.90;;
9422;SDS011;65863;49.506;10.400;2023-04-09T03:31:50;19.80;;;15.20;;
9422;SDS011;65863;49.506;10.400;2023-04-09T03:34:34;19.60;;;15.47;;
9422;SDS011;65863;49.506;10.400;2023-04-09T03:37:18;20.03;;;14.33;;
9422;SDS011;65863;49.506;10.400;2023-04-09T03:40:03;19.03;;;14.57;;
9422;SDS011;65863;49.506;10.400;2023-04-09T03:42:48;19.00;;;14.47;;
9422;SDS011;65863;49.506;10.400;2023-04-09T03:45:34;18.13;;;14.13;;
9422;SDS011;65863;49.506;10.400;2023-04-09T03:48:31;19.37;;;14.77;;
9422;SDS011;65863;49.506;10.400;2023-04-09T03:51:15;19.30;;;14.70;;
9422;SDS011;65863;49.506;10.400;2023-04-09T03:54:06;19.00;;;14.47;;
9422;SDS011;65863;49.506;10.400;2023-04-09T03:56:51;22.90;;;15.57;;
9422;SDS011;65863;49.506;10.400;2023-04-09T03:59:39;20.40;;;16.37;;
9422;SDS011;65863;49.506;10.400;2023-04-09T04:02:23;20.33;;;15.40;;
9422;SDS011;65863;49.506;10.400;2023-04-09T04:05:17;18.37;;;14.60;;
9422;SDS011;65863;49.506;10.400;2023-04-09T04:08:05;19.67;;;14.87;;
9422;SDS011;65863;49.506;10.400;2023-04-09T04:10:49;17.77;;;14.37;;
9422;SDS011;65863;49.506;10.400;2023-04-09T04:13:35;20.57;;;15.37;;
9422;SDS011;65863;49.506;10.400;2023-04-09T04:16:23;19.20;;;14.43;;
9422;SDS011;65863;49.506;10.400;2023-04-09T04:19:10;18.07;;;14.60;;
9422;SDS011;65863;49.506;10.400;2023-04-09T04:22:00;18.10;;;15.13;;
9422;SDS011;65863;49.506;10.400;2023-04-09T04:24:44;18.57;;;14.27;;
9422;SDS011;65863;49.506;10.400;2023-04-09T04:27:33;17.73;;;13.83;;
9422;SDS011;65863;49.506;10.400;2023-04-09T04:30:17;17.50;;;14.03;;
9422;SDS011;65863;49.506;10.400;2023-04-09T04:33:21;23.03;;;15.47;;
9422;SDS011;65863;49.506;10.400;2023-04-09T04:36:09;19.93;;;15.30;;
9422;SDS011;65863;49.506;10.400;2023-04-09T04:39:07;18.80;;;14.43;;
9422;SDS011;65863;49.506;10.400;2023-04-09T04:42:06;19.60;;;14.47;;
9422;SDS011;65863;49.506;10.400;2023-04-09T04:44:50;19.40;;;14.20;;
9422;SDS011;65863;49.506;10.400;2023-04-09T04:47:50;20.37;;;15.47;;
9422;SDS011;65863;49.506;10.400;2023-04-09T04:50:34;18.57;;;13.90;;
9422;SDS011;65863;49.506;10.400;2023-04-09T04:53:23;19.07;;;14.13;;
9422;SDS011;65863;49.506;10.400;2023-04-09T04:56:12;22.80;;;15.50;;
9422;SDS011;65863;49.506;10.400;2023-04-09T04:59:02;21.43;;;15.30;;
9422;SDS011;65863;49.506;10.400;2023-04-09T05:01:55;24.77;;;16.13;;
9422;SDS011;65863;49.506;10.400;2023-04-09T05:04:39;23.37;;;15.83;;
9422;SDS011;65863;49.506;10.400;2023-04-09T05:07:26;23.57;;;15.67;;
9422;SDS011;65863;49.506;10.400;2023-04-09T05:10:13;23.37;;;16.43;;
9422;SDS011;65863;49.506;10.400;2023-04-09T05:12:59;24.70;;;16.73;;
9422;SDS011;65863;49.506;10.400;2023-04-09T05:15:50;22.87;;;16.70;;
9422;SDS011;65863;49.506;10.400;2023-04-09T05:18:34;26.13;;;16.90;;
9422;SDS011;65863;49.506;10.400;2023-04-09T05:21:18;27.40;;;16.67;;
9422;SDS011;65863;49.506;10.400;2023-04-09T05:24:10;26.20;;;18.23;;
9422;SDS011;65863;49.506;10.400;2023-04-09T05:26:55;26.40;;;18.17;;
9422;SDS011;65863;49.506;10.400;2023-04-09T05:29:40;23.57;;;17.23;;
9422;SDS011;65863;49.506;10.400;2023-04-09T05:32:26;19.13;;;15.03;;
9422;SDS011;65863;49.506;10.400;2023-04-09T05:35:10;19.67;;;13.43;;
9422;SDS011;65863;49.506;10.400;2023-04-09T05:37:58;16.80;;;12.87;;
9422;SDS011;65863;49.506;10.400;2023-04-09T05:40:42;16.33;;;12.50;;
9422;SDS011;65863;49.506;10.400;2023-04-09T05:43:30;15.13;;;12.50;;
9422;SDS011;65863;49.506;10.400;2023-04-09T05:46:14;16.17;;;12.07;;
9422;SDS011;65863;49.506;10.400;2023-04-09T05:48:58;15.40;;;12.20;;
9422;SDS011;65863;49.506;10.400;2023-04-09T05:51:43;17.47;;;13.17;;
9422;SDS011;65863;49.506;10.400;2023-04-09T05:54:29;15.37;;;12.70;;
9422;SDS011;65863;49.506;10.400;2023-04-09T05:57:14;14.70;;;12.33;;
9422;SDS011;65863;49.506;10.400;2023-04-09T06:00:02;15.03;;;11.17;;
9422;SDS011;65863;49.506;10.400;2023-04-09T06:02:46;13.23;;;11.27;;
9422;SDS011;65863;49.506;10.400;2023-04-09T06:05:31;13.03;;;10.83;;
9422;SDS011;65863;49.506;10.400;2023-04-09T06:08:15;13.70;;;11.13;;
9422;SDS011;65863;49.506;10.400;2023-04-09T06:10:59;16.27;;;12.40;;
9422;SDS011;65863;49.506;10.400;2023-04-09T06:13:43;13.73;;;11.37;;
9422;SDS011;65863;49.506;10.400;2023-04-09T06:16:28;12.37;;;10.70;;
9422;SDS011;65863;49.506;10.400;2023-04-09T06:19:12;12.80;;;10.57;;
9422;SDS011;65863;49.506;10.400;2023-04-09T06:21:59;13.23;;;10.93;;
9422;SDS011;65863;49.506;10.400;2023-04-09T06:24:42;11.43;;;10.33;;
9422;SDS011;65863;49.506;10.400;2023-04-09T06:27:26;12.70;;;10.73;;
9422;SDS011;65863;49.506;10.400;2023-04-09T06:30:10;12.50;;;10.70;;
9422;SDS011;65863;49.506;10.400;2023-04-09T06:32:54;13.10;;;10.40;;
9422;SDS011;65863;49.506;10.400;2023-04-09T06:35:38;11.07;;;9.90;;
9422;SDS011;65863;49.506;10.400;2023-04-09T06:38:25;10.83;;;9.57;;
9422;SDS011;65863;49.506;10.400;2023-04-09T06:41:09;12.50;;;9.33;;
9422;SDS011;65863;49.506;10.400;2023-04-09T06:43:55;12.80;;;9.40;;
9422;SDS011;65863;49.506;10.400;2023-04-09T06:46:39;11.47;;;9.90;;
9422;SDS011;65863;49.506;10.400;2023-04-09T06:49:23;10.90;;;9.20;;
9422;SDS011;65863;49.506;10.400;2023-04-09T06:52:07;10.20;;;9.20;;
9422;SDS011;65863;49.506;10.400;2023-04-09T06:54:51;10.77;;;9.43;;
9422;SDS011;65863;49.506;10.400;2023-04-09T06:57:35;10.50;;;8.97;;
9422;SDS011;65863;49.506;10.400;2023-04-09T07:00:18;11.10;;;9.97;;
9422;SDS011;65863;49.506;10.400;2023-04-09T07:03:03;11.37;;;9.43;;
9422;SDS011;65863;49.506;10.400;2023-04-09T07:05:47;13.03;;;10.53;;
9422;SDS011;65863;49.506;10.400;2023-04-09T07:08:31;13.57;;;10.43;;
9422;SDS011;65863;49.506;10.400;2023-04-09T07:11:15;12.07;;;10.80;;
9422;SDS011;65863;49.506;10.400;2023-04-09T07:13:59;12.37;;;9.97;;
9422;SDS011;65863;49.506;10.400;2023-04-09T07:16:43;12.90;;;10.77;;
9422;SDS011;65863;49.506;10.400;2023-04-09T07:19:29;12.57;;;10.93;;
9422;SDS011;65863;49.506;10.400;2023-04-09T07:22:13;11.83;;;10.23;;
9422;SDS011;65863;49.506;10.400;2023-04-09T07:24:57;11.93;;;10.30;;
9422;SDS011;65863;49.506;10.400;2023-04-09T07:27:41;11.80;;;10.53;;
9422;SDS011;65863;49.506;10.400;2023-04-09T07:30:26;12.20;;;10.90;;
9422;SDS011;65863;49.506;10.400;2023-04-09T07:33:10;12.60;;;11.30;;
9422;SDS011;65863;49.506;10.400;2023-04-09T07:35:54;12.43;;;11.03;;
9422;SDS011;65863;49.506;10.400;2023-04-09T07:38:38;10.70;;;9.60;;
9422;SDS011;65863;49.506;10.400;2023-04-09T07:41:22;11.27;;;10.17;;
9422;SDS011;65863;49.506;10.400;2023-04-09T07:44:06;11.60;;;10.40;;
9422;SDS011;65863;49.506;10.400;2023-04-09T07:46:51;11.67;;;10.03;;
9422;SDS011;65863;49.506;10.400;2023-04-09T07:49:35;11.03;;;9.83;;
9422;SDS011;65863;49.506;10.400;2023-04-09T07:52:20;11.03;;;9.87;;
9422;SDS011;65863;49.506;10.400;2023-04-09T07:55:04;11.83;;;10.50;;
9422;SDS011;65863;49.506;10.400;2023-04-09T07:57:48;11.40;;;10.20;;
9422;SDS011;65863;49.506;10.400;2023-04-09T08:00:34;11.60;;;9.93;;
9422;SDS011;65863;49.506;10.400;2023-04-09T08:03:18;11.00;;;9.90;;
9422;SDS011;65863;49.506;10.400;2023-04-09T08:06:02;11.77;;;10.53;;
9422;SDS011;65863;49.506;10.400;2023-04-09T08:08:46;10.20;;;9.20;;
9422;SDS011;65863;49.506;10.400;2023-04-09T08:11:30;10.40;;;9.30;;
9422;SDS011;65863;49.506;10.400;2023-04-09T08:14:14;10.53;;;9.43;;
9422;SDS011;65863;49.506;10.400;2023-04-09T08:16:59;10.93;;;9.57;;
9422;SDS011;65863;49.506;10.400;2023-04-09T08:19:44;10.97;;;9.57;;
9422;SDS011;65863;49.506;10.400;2023-04-09T08:22:27;10.43;;;9.30;;
9422;SDS011;65863;49.506;10.400;2023-04-09T08:25:12;10.93;;;9.20;;
9422;SDS011;65863;49.506;10.400;2023-04-09T08:27:55;11.07;;;9.97;;
9422;SDS011;65863;49.506;10.400;2023-04-09T08:30:39;11.50;;;10.30;;
9422;SDS011;65863;49.506;10.400;2023-04-09T08:33:24;11.43;;;9.70;;
9422;SDS011;65863;49.506;10.400;2023-04-09T08:36:09;10.00;;;8.83;;
9422;SDS011;65863;49.506;10.400;2023-04-09T08:38:54;9.63;;;8.67;;
9422;SDS011;65863;49.506;10.400;2023-04-09T08:41:40;9.90;;;8.90;;
9422;SDS011;65863;49.506;10.400;2023-04-09T08:44:28;10.37;;;9.30;;
9422;SDS011;65863;49.506;10.400;2023-04-09T08:47:13;10.20;;;9.10;;
9422;SDS011;65863;49.506;10.400;2023-04-09T08:49:57;10.70;;;9.60;;
9422;SDS011;65863;49.506;10.400;2023-04-09T08:52:42;10.80;;;8.70;;
9422;SDS011;65863;49.506;10.400;2023-04-09T08:55:29;10.77;;;9.67;;
9422;SDS011;65863;49.506;10.400;2023-04-09T08:58:14;10.43;;;9.33;;
9422;SDS011;65863;49.506;10.400;2023-04-09T09:00:58;11.37;;;9.60;;
9422;SDS011;65863;49.506;10.400;2023-04-09T09:03:52;9.53;;;8.53;;
9422;SDS011;65863;49.506;10.400;2023-04-09T09:06:39;9.83;;;8.83;;
9422;SDS011;65863;49.506;10.400;2023-04-09T09:09:24;9.33;;;8.43;;
9422;SDS011;65863;49.506;10.400;2023-04-09T09:12:09;9.10;;;8.20;;
9422;SDS011;65863;49.506;10.400;2023-04-09T09:14:53;11.13;;;8.43;;
9422;SDS011;65863;49.506;10.400;2023-04-09T09:17:52;10.43;;;8.07;;
9422;SDS011;65863;49.506;10.400;2023-04-09T09:20:38;8.93;;;8.10;;
9422;SDS011;65863;49.506;10.400;2023-04-09T09:23:34;8.53;;;7.73;;
9422;SDS011;65863;49.506;10.400;2023-04-09T09:29:05;8.93;;;8.03;;
9422;SDS011;65863;49.506;10.400;2023-04-09T09:31:50;8.93;;;7.13;;
9422;SDS011;65863;49.506;10.400;2023-04-09T09:34:35;8.53;;;7.73;;
9422;SDS011;65863;49.506;10.400;2023-04-09T09:37:26;8.43;;;7.37;;
9422;SDS011;65863;49.506;10.400;2023-04-09T09:40:11;8.70;;;7.83;;
9422;SDS011;65863;49.506;10.400;2023-04-09T09:43:11;8.50;;;7.70;;
9422;SDS011;65863;49.506;10.400;2023-04-09T09:45:56;8.30;;;7.47;;
9422;SDS011;65863;49.506;10.400;2023-04-09T09:48:40;10.13;;;8.67;;
9422;SDS011;65863;49.506;10.400;2023-04-09T09:51:25;8.27;;;7.07;;
9422;SDS011;65863;49.506;10.400;2023-04-09T09:54:12;7.40;;;6.70;;
9422;SDS011;65863;49.506;10.400;2023-04-09T09:57:02;9.37;;;8.47;;
9422;SDS011;65863;49.506;10.400;2023-04-09T09:59:52;8.23;;;7.43;;
9422;SDS011;65863;49.506;10.400;2023-04-09T10:02:40;7.63;;;6.93;;
9422;SDS011;65863;49.506;10.400;2023-04-09T10:05:28;7.37;;;6.43;;
9422;SDS011;65863;49.506;10.400;2023-04-09T10:08:13;9.30;;;8.40;;
9422;SDS011;65863;49.506;10.400;2023-04-09T10:11:02;8.20;;;7.20;;
9422;SDS011;65863;49.506;10.400;2023-04-09T10:13:52;8.10;;;7.30;;
9422;SDS011;65863;49.506;10.400;2023-04-09T10:16:42;6.80;;;6.10;;
9422;SDS011;65863;49.506;10.400;2023-04-09T10:19:26;8.50;;;7.50;;
9422;SDS011;65863;49.506;10.400;2023-04-09T10:22:11;8.40;;;7.53;;
9422;SDS011;65863;49.506;10.400;2023-04-09T10:24:58;7.67;;;6.80;;
9422;SDS011;65863;49.506;10.400;2023-04-09T10:27:43;6.83;;;6.13;;
9422;SDS011;65863;49.506;10.400;2023-04-09T10:30:35;8.23;;;7.00;;
9422;SDS011;65863;49.506;10.400;2023-04-09T10:33:23;7.93;;;7.13;;
9422;SDS011;65863;49.506;10.400;2023-04-09T10:36:10;7.93;;;7.13;;
9422;SDS011;65863;49.506;10.400;2023-04-09T10:38:55;8.17;;;7.37;;
9422;SDS011;65863;49.506;10.400;2023-04-09T10:41:40;7.50;;;6.73;;
9422;SDS011;65863;49.506;10.400;2023-04-09T10:44:26;9.93;;;7.47;;
9422;SDS011;65863;49.506;10.400;2023-04-09T10:47:11;7.43;;;6.73;;
9422;SDS011;65863;49.506;10.400;2023-04-09T10:50:20;7.70;;;6.90;;
9422;SDS011;65863;49.506;10.400;2023-04-09T10:53:12;7.77;;;6.83;;
9422;SDS011;65863;49.506;10.400;2023-04-09T10:56:10;7.87;;;6.93;;
9422;SDS011;65863;49.506;10.400;2023-04-09T10:58:58;7.07;;;6.37;;
9422;SDS011;65863;49.506;10.400;2023-04-09T11:01:50;7.83;;;7.03;;
9422;SDS011;65863;49.506;10.400;2023-04-09T11:07:32;7.73;;;6.93;;
9422;SDS011;65863;49.506;10.400;2023-04-09T11:10:19;6.57;;;5.97;;
9422;SDS011;65863;49.506;10.400;2023-04-09T11:13:04;7.37;;;6.33;;
9422;SDS011;65863;49.506;10.400;2023-04-09T11:15:48;6.50;;;5.90;;
9422;SDS011;65863;49.506;10.400;2023-04-09T11:18:33;6.50;;;5.90;;
9422;SDS011;65863;49.506;10.400;2023-04-09T11:21:18;8.40;;;7.50;;
9422;SDS011;65863;49.506;10.400;2023-04-09T11:24:02;9.10;;;7.73;;
9422;SDS011;65863;49.506;10.400;2023-04-09T11:26:46;7.77;;;6.90;;
9422;SDS011;65863;49.506;10.400;2023-04-09T11:29:33;8.77;;;7.27;;
9422;SDS011;65863;49.506;10.400;2023-04-09T11:32:17;8.63;;;7.82;;
9422;SDS011;65863;49.506;10.400;2023-04-09T11:35:02;7.57;;;6.87;;
9422;SDS011;65863;49.506;10.400;2023-04-09T11:37:47;7.67;;;6.90;;
9422;SDS011;65863;49.506;10.400;2023-04-09T11:40:31;6.10;;;5.50;;
9422;SDS011;65863;49.506;10.400;2023-04-09T11:43:15;6.37;;;5.73;;
9422;SDS011;65863;49.506;10.400;2023-04-09T11:46:00;6.00;;;5.40;;
9422;SDS011;65863;49.506;10.400;2023-04-09T11:48:44;6.60;;;5.87;;
9422;SDS011;65863;49.506;10.400;2023-04-09T11:51:28;6.37;;;5.77;;
9422;SDS011;65863;49.506;10.400;2023-04-09T11:54:14;6.70;;;6.00;;
9422;SDS011;65863;49.506;10.400;2023-04-09T11:57:06;6.17;;;5.57;;
9422;SDS011;65863;49.506;10.400;2023-04-09T11:59:50;6.60;;;5.50;;
9422;SDS011;65863;49.506;10.400;2023-04-09T12:02:38;6.47;;;5.87;;
9422;SDS011;65863;49.506;10.400;2023-04-09T12:05:25;6.00;;;5.50;;
9422;SDS011;65863;49.506;10.400;2023-04-09T12:08:11;7.47;;;6.77;;
9422;SDS011;65863;49.506;10.400;2023-04-09T12:10:55;7.03;;;6.37;;
9422;SDS011;65863;49.506;10.400;2023-04-09T12:13:39;6.63;;;6.03;;
9422;SDS011;65863;49.506;10.400;2023-04-09T12:16:29;6.87;;;6.17;;
9422;SDS011;65863;49.506;10.400;2023-04-09T12:19:14;6.73;;;6.10;;
9422;SDS011;65863;49.506;10.400;2023-04-09T12:21:59;7.47;;;6.60;;
9422;SDS011;65863;49.506;10.400;2023-04-09T12:24:43;7.07;;;6.37;;
9422;SDS011;65863;49.506;10.400;2023-04-09T12:27:26;7.73;;;6.83;;
9422;SDS011;65863;49.506;10.400;2023-04-09T12:30:11;6.80;;;6.10;;
9422;SDS011;65863;49.506;10.400;2023-04-09T12:32:55;7.30;;;6.37;;
9422;SDS011;65863;49.506;10.400;2023-04-09T12:35:49;7.20;;;6.37;;
9422;SDS011;65863;49.506;10.400;2023-04-09T12:38:33;7.30;;;6.50;;
9422;SDS011;65863;49.506;10.400;2023-04-09T12:41:16;6.20;;;5.60;;
9422;SDS011;65863;49.506;10.400;2023-04-09T12:44:00;6.43;;;5.83;;
9422;SDS011;65863;49.506;10.400;2023-04-09T12:46:44;6.07;;;5.47;;
9422;SDS011;65863;49.506;10.400;2023-04-09T12:49:32;7.97;;;6.53;;
9422;SDS011;65863;49.506;10.400;2023-04-09T12:52:16;5.90;;;5.30;;
9422;SDS011;65863;49.506;10.400;2023-04-09T12:55:01;6.17;;;5.57;;
9422;SDS011;65863;49.506;10.400;2023-04-09T12:57:48;6.07;;;5.47;;
9422;SDS011;65863;49.506;10.400;2023-04-09T13:00:32;5.33;;;4.83;;
9422;SDS011;65863;49.506;10.400;2023-04-09T13:03:17;5.47;;;4.97;;
9422;SDS011;65863;49.506;10.400;2023-04-09T13:06:01;6.27;;;5.40;;
9422;SDS011;65863;49.506;10.400;2023-04-09T13:08:45;6.90;;;6.20;;
9422;SDS011;65863;49.506;10.400;2023-04-09T13:11:29;6.53;;;5.93;;
9422;SDS011;65863;49.506;10.400;2023-04-09T13:14:13;8.93;;;6.57;;
9422;SDS011;65863;49.506;10.400;2023-04-09T13:16:57;6.47;;;5.87;;
9422;SDS011;65863;49.506;10.400;2023-04-09T13:19:41;7.50;;;6.80;;
9422;SDS011;65863;49.506;10.400;2023-04-09T13:22:25;7.73;;;6.93;;
9422;SDS011;65863;49.506;10.400;2023-04-09T13:25:09;7.20;;;6.50;;
9422;SDS011;65863;49.506;10.400;2023-04-09T13:27:52;7.40;;;6.70;;
9422;SDS011;65863;49.506;10.400;2023-04-09T13:30:36;7.63;;;6.87;;
9422;SDS011;65863;49.506;10.400;2023-04-09T13:33:21;6.60;;;6.00;;
9422;SDS011;65863;49.506;10.400;2023-04-09T13:36:05;7.07;;;6.37;;
9422;SDS011;65863;49.506;10.400;2023-04-09T13:38:49;7.23;;;6.23;;
9422;SDS011;65863;49.506;10.400;2023-04-09T13:41:33;7.43;;;6.73;;
9422;SDS011;65863;49.506;10.400;2023-04-09T13:44:17;6.47;;;5.87;;
9422;SDS011;65863;49.506;10.400;2023-04-09T13:47:01;7.20;;;6.50;;
9422;SDS011;65863;49.506;10.400;2023-04-09T13:49:44;7.87;;;7.07;;
9422;SDS011;65863;49.506;10.400;2023-04-09T13:52:28;7.43;;;6.67;;
9422;SDS011;65863;49.506;10.400;2023-04-09T13:55:12;7.83;;;6.80;;
9422;SDS011;65863;49.506;10.400;2023-04-09T13:57:56;6.00;;;5.37;;
9422;SDS011;65863;49.506;10.400;2023-04-09T14:00:40;6.77;;;6.07;;
9422;SDS011;65863;49.506;10.400;2023-04-09T14:03:24;6.70;;;6.00;;
9422;SDS011;65863;49.506;10.400;2023-04-09T14:06:09;7.10;;;6.17;;
9422;SDS011;65863;49.506;10.400;2023-04-09T14:08:52;6.53;;;5.93;;
9422;SDS011;65863;49.506;10.400;2023-04-09T14:11:36;6.43;;;5.40;;
9422;SDS011;65863;49.506;10.400;2023-04-09T14:14:21;6.10;;;5.50;;
9422;SDS011;65863;49.506;10.400;2023-04-09T14:17:05;6.53;;;5.93;;
9422;SDS011;65863;49.506;10.400;2023-04-09T14:19:49;6.20;;;5.60;;
9422;SDS011;65863;49.506;10.400;2023-04-09T14:22:33;6.23;;;5.63;;
9422;SDS011;65863;49.506;10.400;2023-04-09T14:25:17;6.70;;;6.10;;
9422;SDS011;65863;49.506;10.400;2023-04-09T14:28:01;6.90;;;6.20;;
9422;SDS011;65863;49.506;10.400;2023-04-09T14:30:45;6.43;;;5.53;;
9422;SDS011;65863;49.506;10.400;2023-04-09T14:33:29;6.63;;;6.03;;
9422;SDS011;65863;49.506;10.400;2023-04-09T14:36:13;6.10;;;5.50;;
9422;SDS011;65863;49.506;10.400;2023-04-09T14:38:58;5.97;;;5.37;;
9422;SDS011;65863;49.506;10.400;2023-04-09T14:41:42;7.53;;;6.63;;
9422;SDS011;65863;49.506;10.400;2023-04-09T14:44:26;7.50;;;6.63;;
9422;SDS011;65863;49.506;10.400;2023-04-09T14:47:10;6.30;;;5.70;;
9422;SDS011;65863;49.506;10.400;2023-04-09T14:49:54;6.17;;;5.57;;
9422;SDS011;65863;49.506;10.400;2023-04-09T14:52:38;6.30;;;5.43;;
9422;SDS011;65863;49.506;10.400;2023-04-09T14:55:22;6.27;;;5.67;;
9422;SDS011;65863;49.506;10.400;2023-04-09T14:58:08;5.67;;;5.17;;
9422;SDS011;65863;49.506;10.400;2023-04-09T15:00:52;5.40;;;4.90;;
9422;SDS011;65863;49.506;10.400;2023-04-09T15:03:36;5.83;;;5.23;;
9422;SDS011;65863;49.506;10.400;2023-04-09T15:06:20;5.80;;;5.30;;
9422;SDS011;65863;49.506;10.400;2023-04-09T15:09:04;5.13;;;4.63;;
9422;SDS011;65863;49.506;10.400;2023-04-09T15:11:48;5.70;;;5.10;;
9422;SDS011;65863;49.506;10.400;2023-04-09T15:14:32;4.90;;;4.50;;
9422;SDS011;65863;49.506;10.400;2023-04-09T15:17:16;4.87;;;4.47;;
9422;SDS011;65863;49.506;10.400;2023-04-09T15:19:59;4.77;;;4.37;;
9422;SDS011;65863;49.506;10.400;2023-04-09T15:22:44;5.30;;;4.80;;
9422;SDS011;65863;49.506;10.400;2023-04-09T15:25:28;4.70;;;4.30;;
9422;SDS011;65863;49.506;10.400;2023-04-09T15:28:12;4.97;;;4.53;;
9422;SDS011;65863;49.506;10.400;2023-04-09T15:30:56;5.23;;;4.73;;
9422;SDS011;65863;49.506;10.400;2023-04-09T15:33:41;5.80;;;4.80;;
9422;SDS011;65863;49.506;10.400;2023-04-09T15:36:25;5.50;;;4.90;;
9422;SDS011;65863;49.506;10.400;2023-04-09T15:39:11;5.23;;;4.73;;
9422;SDS011;65863;49.506;10.400;2023-04-09T15:41:55;5.20;;;4.70;;
9422;SDS011;65863;49.506;10.400;2023-04-09T15:44:40;7.33;;;4.67;;
9422;SDS011;65863;49.506;10.400;2023-04-09T15:47:24;5.33;;;4.70;;
9422;SDS011;65863;49.506;10.400;2023-04-09T15:50:08;5.40;;;4.90;;
9422;SDS011;65863;49.506;10.400;2023-04-09T15:52:52;4.97;;;4.57;;
9422;SDS011;65863;49.506;10.400;2023-04-09T15:55:37;5.13;;;4.63;;
9422;SDS011;65863;49.506;10.400;2023-04-09T15:58:21;4.97;;;4.43;;
9422;SDS011;65863;49.506;10.400;2023-04-09T16:01:06;4.70;;;4.30;;
9422;SDS011;65863;49.506;10.400;2023-04-09T16:03:51;5.07;;;4.57;;
9422;SDS011;65863;49.506;10.400;2023-04-09T16:06:36;5.20;;;4.70;;
9422;SDS011;65863;49.506;10.400;2023-04-09T16:09:22;5.27;;;4.77;;
9422;SDS011;65863;49.506;10.400;2023-04-09T16:12:06;5.83;;;4.83;;
9422;SDS011;65863;49.506;10.400;2023-04-09T16:14:50;4.83;;;4.40;;
9422;SDS011;65863;49.506;10.400;2023-04-09T16:17:36;4.77;;;4.30;;
9422;SDS011;65863;49.506;10.400;2023-04-09T16:20:20;4.97;;;4.47;;
9422;SDS011;65863;49.506;10.400;2023-04-09T16:23:04;5.10;;;4.60;;
9422;SDS011;65863;49.506;10.400;2023-04-09T16:25:48;5.27;;;4.60;;
9422;SDS011;65863;49.506;10.400;2023-04-09T16:28:32;5.13;;;4.63;;
9422;SDS011;65863;49.506;10.400;2023-04-09T16:31:16;5.40;;;4.90;;
9422;SDS011;65863;49.506;10.400;2023-04-09T16:34:00;4.63;;;4.23;;
9422;SDS011;65863;49.506;10.400;2023-04-09T16:36:44;5.17;;;4.67;;
9422;SDS011;65863;49.506;10.400;2023-04-09T16:39:28;4.83;;;4.37;;
9422;SDS011;65863;49.506;10.400;2023-04-09T16:42:12;5.17;;;4.73;;
9422;SDS011;65863;49.506;10.400;2023-04-09T16:44:56;4.80;;;4.40;;
9422;SDS011;65863;49.506;10.400;2023-04-09T16:47:40;5.00;;;4.50;;